sensor_id;sensor_type;location;lat;lon;timestamp;temperature;humidity
23143;DHT22;11740;51.168;4.112;2022-07-17T00:01:20;20.10;1.00
23143;DHT22;11740;51.168;4.112;2022-07-17T00:03:48;20.00;1.00
23143;DHT22;11740;51.168;4.112;2022-07-17T00:06:15;20.00;1.00
23143;DHT22;11740;51.168;4.112;2022-07-17T00:08:42;19.90;1.00
23143;DHT22;11740;51.168;4.112;2022-07-17T00:11:11;19.80;1.00
23143;DHT22;11740;51.168;4.112;2022-07-17T00:13:38;19.80;1.00
23143;DHT22;11740;51.168;4.112;2022-07-17T00:16:06;19.70;1.00
23143;DHT22;11740;51.168;4.112;2022-07-17T00:18:33;19.60;1.00
23143;DHT22;11740;51.168;4.112;2022-07-17T00:21:01;19.60;1.00
23143;DHT22;11740;51.168;4.112;2022-07-17T00:23:28;19.40;15.80
23143;DHT22;11740;51.168;4.112;2022-07-17T00:25:55;19.30;10.60
23143;DHT22;11740;51.168;4.112;2022-07-17T00:28:22;19.30;8.90
23143;DHT22;11740;51.168;4.112;2022-07-17T00:30:49;19.30;1.10
23143;DHT22;11740;51.168;4.112;2022-07-17T00:33:16;19.20;23.20
23143;DHT22;11740;51.168;4.112;2022-07-17T00:35:43;19.10;42.90
23143;DHT22;11740;51.168;4.112;2022-07-17T00:38:10;19.00;13.20
23143;DHT22;11740;51.168;4.112;2022-07-17T00:40:37;19.00;6.90
23143;DHT22;11740;51.168;4.112;2022-07-17T00:43:04;19.00;1.30
23143;DHT22;11740;51.168;4.112;2022-07-17T00:45:32;19.00;10.70
23143;DHT22;11740;51.168;4.112;2022-07-17T00:48:01;18.90;5.30
23143;DHT22;11740;51.168;4.112;2022-07-17T00:50:35;18.90;3.30
23143;DHT22;11740;51.168;4.112;2022-07-17T00:53:04;18.80;4.10
23143;DHT22;11740;51.168;4.112;2022-07-17T00:55:33;18.70;5.90
23143;DHT22;11740;51.168;4.112;2022-07-17T00:58:10;18.70;3.20
23143;DHT22;11740;51.168;4.112;2022-07-17T01:00:37;18.60;3.70
23143;DHT22;11740;51.168;4.112;2022-07-17T01:03:05;18.60;38.50
23143;DHT22;11740;51.168;4.112;2022-07-17T01:05:36;18.50;7.90
23143;DHT22;11740;51.168;4.112;2022-07-17T01:08:03;18.40;6.80
23143;DHT22;11740;51.168;4.112;2022-07-17T01:10:38;18.40;1.00
23143;DHT22;11740;51.168;4.112;2022-07-17T01:13:06;18.30;20.60
23143;DHT22;11740;51.168;4.112;2022-07-17T01:15:37;18.20;26.80
23143;DHT22;11740;51.168;4.112;2022-07-17T01:18:07;18.20;5.30
23143;DHT22;11740;51.168;4.112;2022-07-17T01:20:37;18.10;10.20
23143;DHT22;11740;51.168;4.112;2022-07-17T01:23:05;18.10;4.40
23143;DHT22;11740;51.168;4.112;2022-07-17T01:25:33;18.00;9.50
23143;DHT22;11740;51.168;4.112;2022-07-17T01:28:02;18.00;4.50
23143;DHT22;11740;51.168;4.112;2022-07-17T01:30:31;17.90;1.70
23143;DHT22;11740;51.168;4.112;2022-07-17T01:32:58;17.90;15.70
23143;DHT22;11740;51.168;4.112;2022-07-17T01:35:26;17.80;8.40
23143;DHT22;11740;51.168;4.112;2022-07-17T01:37:53;17.80;4.20
23143;DHT22;11740;51.168;4.112;2022-07-17T01:40:21;17.80;8.60
23143;DHT22;11740;51.168;4.112;2022-07-17T01:42:49;17.70;14.70
23143;DHT22;11740;51.168;4.112;2022-07-17T01:45:18;17.60;14.00
23143;DHT22;11740;51.168;4.112;2022-07-17T01:47:46;17.60;37.30
23143;DHT22;11740;51.168;4.112;2022-07-17T01:50:15;17.50;6.00
23143;DHT22;11740;51.168;4.112;2022-07-17T01:52:43;17.50;14.40
23143;DHT22;11740;51.168;4.112;2022-07-17T01:55:14;17.40;25.40
23143;DHT22;11740;51.168;4.112;2022-07-17T01:57:43;17.20;35.10
23143;DHT22;11740;51.168;4.112;2022-07-17T02:00:15;17.20;54.90
23143;DHT22;11740;51.168;4.112;2022-07-17T02:02:44;17.10;96.60
23143;DHT22;11740;51.168;4.112;2022-07-17T02:05:13;16.90;99.90
23143;DHT22;11740;51.168;4.112;2022-07-17T02:07:40;16.90;99.90
23143;DHT22;11740;51.168;4.112;2022-07-17T02:10:09;16.90;99.90
23143;DHT22;11740;51.168;4.112;2022-07-17T02:12:37;16.90;97.50
23143;DHT22;11740;51.168;4.112;2022-07-17T02:15:05;16.90;89.80
23143;DHT22;11740;51.168;4.112;2022-07-17T02:17:33;16.90;86.00
23143;DHT22;11740;51.168;4.112;2022-07-17T02:20:00;16.90;79.80
23143;DHT22;11740;51.168;4.112;2022-07-17T02:22:27;16.80;73.20
23143;DHT22;11740;51.168;4.112;2022-07-17T02:24:54;16.70;73.70
23143;DHT22;11740;51.168;4.112;2022-07-17T02:27:21;16.70;82.70
23143;DHT22;11740;51.168;4.112;2022-07-17T02:29:48;16.70;94.70
23143;DHT22;11740;51.168;4.112;2022-07-17T02:32:15;16.60;99.90
23143;DHT22;11740;51.168;4.112;2022-07-17T02:34:42;16.60;93.90
23143;DHT22;11740;51.168;4.112;2022-07-17T02:37:09;16.50;82.90
23143;DHT22;11740;51.168;4.112;2022-07-17T02:39:37;16.50;85.90
23143;DHT22;11740;51.168;4.112;2022-07-17T02:42:23;16.50;72.10
23143;DHT22;11740;51.168;4.112;2022-07-17T02:44:53;16.40;76.00
23143;DHT22;11740;51.168;4.112;2022-07-17T02:47:31;16.30;87.90
23143;DHT22;11740;51.168;4.112;2022-07-17T02:50:00;16.30;76.30
23143;DHT22;11740;51.168;4.112;2022-07-17T02:52:29;16.30;75.60
23143;DHT22;11740;51.168;4.112;2022-07-17T02:54:56;16.30;68.80
23143;DHT22;11740;51.168;4.112;2022-07-17T02:57:24;16.20;87.90
23143;DHT22;11740;51.168;4.112;2022-07-17T02:59:52;16.10;99.90
23143;DHT22;11740;51.168;4.112;2022-07-17T03:02:19;16.00;97.60
23143;DHT22;11740;51.168;4.112;2022-07-17T03:04:46;16.10;87.80
23143;DHT22;11740;51.168;4.112;2022-07-17T03:07:13;16.00;99.90
23143;DHT22;11740;51.168;4.112;2022-07-17T03:09:40;15.90;99.90
23143;DHT22;11740;51.168;4.112;2022-07-17T03:12:07;15.90;86.10
23143;DHT22;11740;51.168;4.112;2022-07-17T03:14:34;15.90;87.80
23143;DHT22;11740;51.168;4.112;2022-07-17T03:17:01;15.90;74.00
23143;DHT22;11740;51.168;4.112;2022-07-17T03:19:29;15.80;79.80
23143;DHT22;11740;51.168;4.112;2022-07-17T03:21:56;15.80;74.70
23143;DHT22;11740;51.168;4.112;2022-07-17T03:24:23;15.70;67.90
23143;DHT22;11740;51.168;4.112;2022-07-17T03:26:50;15.80;66.70
23143;DHT22;11740;51.168;4.112;2022-07-17T03:29:17;15.70;64.60
23143;DHT22;11740;51.168;4.112;2022-07-17T03:31:45;15.70;63.10
23143;DHT22;11740;51.168;4.112;2022-07-17T03:34:21;15.60;76.00
23143;DHT22;11740;51.168;4.112;2022-07-17T03:36:48;15.60;82.60
23143;DHT22;11740;51.168;4.112;2022-07-17T03:39:15;15.60;66.40
23143;DHT22;11740;51.168;4.112;2022-07-17T03:41:42;15.50;99.90
23143;DHT22;11740;51.168;4.112;2022-07-17T03:44:10;15.40;92.60
23143;DHT22;11740;51.168;4.112;2022-07-17T03:46:37;15.40;99.90
23143;DHT22;11740;51.168;4.112;2022-07-17T03:49:04;15.30;99.90
23143;DHT22;11740;51.168;4.112;2022-07-17T03:51:31;15.30;99.90
23143;DHT22;11740;51.168;4.112;2022-07-17T03:53:58;15.20;99.90
23143;DHT22;11740;51.168;4.112;2022-07-17T03:56:25;15.20;99.90
23143;DHT22;11740;51.168;4.112;2022-07-17T03:58:52;15.10;99.90
23143;DHT22;11740;51.168;4.112;2022-07-17T04:01:19;15.10;99.90
23143;DHT22;11740;51.168;4.112;2022-07-17T04:03:46;14.90;99.90
23143;DHT22;11740;51.168;4.112;2022-07-17T04:06:13;14.80;99.90
23143;DHT22;11740;51.168;4.112;2022-07-17T04:08:40;14.80;99.90
23143;DHT22;11740;51.168;4.112;2022-07-17T04:11:07;14.80;99.90
23143;DHT22;11740;51.168;4.112;2022-07-17T04:13:36;14.80;99.90
23143;DHT22;11740;51.168;4.112;2022-07-17T04:16:05;14.70;1.00
23143;DHT22;11740;51.168;4.112;2022-07-17T04:18:35;14.70;99.90
23143;DHT22;11740;51.168;4.112;2022-07-17T04:21:05;14.70;99.90
23143;DHT22;11740;51.168;4.112;2022-07-17T04:23:37;14.70;99.90
23143;DHT22;11740;51.168;4.112;2022-07-17T04:26:05;14.70;99.90
23143;DHT22;11740;51.168;4.112;2022-07-17T04:28:37;14.80;99.90
23143;DHT22;11740;51.168;4.112;2022-07-17T04:31:06;14.70;99.90
23143;DHT22;11740;51.168;4.112;2022-07-17T04:33:34;14.70;99.90
23143;DHT22;11740;51.168;4.112;2022-07-17T04:36:01;14.70;99.90
23143;DHT22;11740;51.168;4.112;2022-07-17T04:38:29;14.60;99.90
23143;DHT22;11740;51.168;4.112;2022-07-17T04:40:56;14.70;99.90
23143;DHT22;11740;51.168;4.112;2022-07-17T04:43:23;14.60;99.90
23143;DHT22;11740;51.168;4.112;2022-07-17T04:45:50;14.60;99.90
23143;DHT22;11740;51.168;4.112;2022-07-17T04:48:17;14.50;1.00
23143;DHT22;11740;51.168;4.112;2022-07-17T04:50:45;14.50;99.90
23143;DHT22;11740;51.168;4.112;2022-07-17T04:53:12;14.50;99.90
23143;DHT22;11740;51.168;4.112;2022-07-17T04:55:39;14.50;99.90
23143;DHT22;11740;51.168;4.112;2022-07-17T04:58:06;14.50;99.90
23143;DHT22;11740;51.168;4.112;2022-07-17T05:00:33;14.50;99.90
23143;DHT22;11740;51.168;4.112;2022-07-17T05:03:01;14.50;99.90
23143;DHT22;11740;51.168;4.112;2022-07-17T05:05:28;14.50;99.90
23143;DHT22;11740;51.168;4.112;2022-07-17T05:07:54;14.50;99.90
23143;DHT22;11740;51.168;4.112;2022-07-17T05:10:22;14.50;99.90
23143;DHT22;11740;51.168;4.112;2022-07-17T05:12:53;14.40;99.90
23143;DHT22;11740;51.168;4.112;2022-07-17T05:15:21;14.50;99.90
23143;DHT22;11740;51.168;4.112;2022-07-17T05:17:48;14.40;99.90
23143;DHT22;11740;51.168;4.112;2022-07-17T05:20:15;14.50;99.90
23143;DHT22;11740;51.168;4.112;2022-07-17T05:22:42;14.50;99.90
23143;DHT22;11740;51.168;4.112;2022-07-17T05:25:09;14.50;99.90
23143;DHT22;11740;51.168;4.112;2022-07-17T05:27:36;14.50;1.00
23143;DHT22;11740;51.168;4.112;2022-07-17T05:30:03;14.40;99.90
23143;DHT22;11740;51.168;4.112;2022-07-17T05:32:31;14.40;99.90
23143;DHT22;11740;51.168;4.112;2022-07-17T05:34:58;14.40;1.00
23143;DHT22;11740;51.168;4.112;2022-07-17T05:37:25;14.50;99.90
23143;DHT22;11740;51.168;4.112;2022-07-17T05:39:52;14.50;1.00
23143;DHT22;11740;51.168;4.112;2022-07-17T05:42:19;14.50;1.00
23143;DHT22;11740;51.168;4.112;2022-07-17T05:44:46;14.60;99.90
23143;DHT22;11740;51.168;4.112;2022-07-17T05:47:13;14.60;1.00
23143;DHT22;11740;51.168;4.112;2022-07-17T05:49:40;14.70;1.00
23143;DHT22;11740;51.168;4.112;2022-07-17T05:52:07;14.70;99.90
23143;DHT22;11740;51.168;4.112;2022-07-17T05:54:34;14.70;1.00
23143;DHT22;11740;51.168;4.112;2022-07-17T05:57:01;14.70;1.00
23143;DHT22;11740;51.168;4.112;2022-07-17T05:59:36;14.80;1.00
23143;DHT22;11740;51.168;4.112;2022-07-17T06:02:03;14.80;1.00
23143;DHT22;11740;51.168;4.112;2022-07-17T06:04:31;14.90;1.00
23143;DHT22;11740;51.168;4.112;2022-07-17T06:06:59;14.90;1.00
23143;DHT22;11740;51.168;4.112;2022-07-17T06:09:26;15.00;1.00
23143;DHT22;11740;51.168;4.112;2022-07-17T06:11:53;15.00;23.50
23143;DHT22;11740;51.168;4.112;2022-07-17T06:14:20;15.00;1.00
23143;DHT22;11740;51.168;4.112;2022-07-17T06:16:47;15.10;1.00
23143;DHT22;11740;51.168;4.112;2022-07-17T06:19:13;15.10;1.00
23143;DHT22;11740;51.168;4.112;2022-07-17T06:21:40;15.20;62.60
23143;DHT22;11740;51.168;4.112;2022-07-17T06:24:07;15.20;1.00
23143;DHT22;11740;51.168;4.112;2022-07-17T06:26:34;15.20;1.00
23143;DHT22;11740;51.168;4.112;2022-07-17T06:29:01;15.30;1.00
23143;DHT22;11740;51.168;4.112;2022-07-17T06:31:28;15.40;99.90
23143;DHT22;11740;51.168;4.112;2022-07-17T06:33:56;15.40;99.90
23143;DHT22;11740;51.168;4.112;2022-07-17T06:36:23;15.40;32.10
23143;DHT22;11740;51.168;4.112;2022-07-17T06:38:50;15.50;1.00
23143;DHT22;11740;51.168;4.112;2022-07-17T06:41:17;15.50;1.00
23143;DHT22;11740;51.168;4.112;2022-07-17T06:43:44;15.60;82.70
23143;DHT22;11740;51.168;4.112;2022-07-17T06:46:11;15.70;55.00
23143;DHT22;11740;51.168;4.112;2022-07-17T06:48:38;15.70;99.90
23143;DHT22;11740;51.168;4.112;2022-07-17T06:51:05;15.70;1.00
23143;DHT22;11740;51.168;4.112;2022-07-17T06:53:32;15.70;1.00
23143;DHT22;11740;51.168;4.112;2022-07-17T06:56:00;15.80;1.00
23143;DHT22;11740;51.168;4.112;2022-07-17T06:58:27;15.80;1.00
23143;DHT22;11740;51.168;4.112;2022-07-17T07:00:54;15.90;1.00
23143;DHT22;11740;51.168;4.112;2022-07-17T07:03:21;15.90;1.00
23143;DHT22;11740;51.168;4.112;2022-07-17T07:05:48;16.00;1.00
23143;DHT22;11740;51.168;4.112;2022-07-17T07:08:16;16.00;1.00
23143;DHT22;11740;51.168;4.112;2022-07-17T07:10:43;16.00;1.00
23143;DHT22;11740;51.168;4.112;2022-07-17T07:13:11;16.00;1.00
23143;DHT22;11740;51.168;4.112;2022-07-17T07:15:39;16.10;1.00
23143;DHT22;11740;51.168;4.112;2022-07-17T07:18:06;16.10;1.00
23143;DHT22;11740;51.168;4.112;2022-07-17T07:20:33;16.20;1.00
23143;DHT22;11740;51.168;4.112;2022-07-17T07:23:01;16.20;1.00
23143;DHT22;11740;51.168;4.112;2022-07-17T07:25:33;16.30;1.00
23143;DHT22;11740;51.168;4.112;2022-07-17T07:28:02;16.40;1.00
23143;DHT22;11740;51.168;4.112;2022-07-17T07:30:30;16.40;1.00
23143;DHT22;11740;51.168;4.112;2022-07-17T07:32:57;16.50;1.00
23143;DHT22;11740;51.168;4.112;2022-07-17T07:35:24;16.60;1.00
23143;DHT22;11740;51.168;4.112;2022-07-17T07:37:51;16.60;1.00
23143;DHT22;11740;51.168;4.112;2022-07-17T07:40:19;16.60;1.00
23143;DHT22;11740;51.168;4.112;2022-07-17T07:42:46;16.70;1.00
23143;DHT22;11740;51.168;4.112;2022-07-17T07:45:13;16.80;1.00
23143;DHT22;11740;51.168;4.112;2022-07-17T07:47:44;16.90;1.00
23143;DHT22;11740;51.168;4.112;2022-07-17T07:50:17;16.90;1.00
23143;DHT22;11740;51.168;4.112;2022-07-17T07:52:45;17.00;1.00
23143;DHT22;11740;51.168;4.112;2022-07-17T07:55:12;17.10;1.00
23143;DHT22;11740;51.168;4.112;2022-07-17T07:58:00;17.20;1.00
23143;DHT22;11740;51.168;4.112;2022-07-17T08:00:35;17.30;1.00
23143;DHT22;11740;51.168;4.112;2022-07-17T08:03:03;17.40;1.00
23143;DHT22;11740;51.168;4.112;2022-07-17T08:05:30;17.40;1.00
23143;DHT22;11740;51.168;4.112;2022-07-17T08:07:58;17.50;1.00
23143;DHT22;11740;51.168;4.112;2022-07-17T08:10:26;17.70;1.00
23143;DHT22;11740;51.168;4.112;2022-07-17T08:12:53;17.90;1.00
23143;DHT22;11740;51.168;4.112;2022-07-17T08:15:22;18.00;1.00
23143;DHT22;11740;51.168;4.112;2022-07-17T08:17:56;18.30;1.00
23143;DHT22;11740;51.168;4.112;2022-07-17T08:20:24;18.50;99.90
23143;DHT22;11740;51.168;4.112;2022-07-17T08:22:52;18.70;99.90
23143;DHT22;11740;51.168;4.112;2022-07-17T08:25:31;19.00;1.00
23143;DHT22;11740;51.168;4.112;2022-07-17T08:27:59;19.30;99.90
23143;DHT22;11740;51.168;4.112;2022-07-17T08:30:26;19.60;99.90
23143;DHT22;11740;51.168;4.112;2022-07-17T08:32:53;19.80;99.90
23143;DHT22;11740;51.168;4.112;2022-07-17T08:35:20;20.10;99.90
23143;DHT22;11740;51.168;4.112;2022-07-17T08:37:49;20.30;99.90
23143;DHT22;11740;51.168;4.112;2022-07-17T08:40:22;20.40;99.90
23143;DHT22;11740;51.168;4.112;2022-07-17T08:42:51;20.50;99.90
23143;DHT22;11740;51.168;4.112;2022-07-17T08:45:19;20.80;99.90
23143;DHT22;11740;51.168;4.112;2022-07-17T08:47:50;21.10;99.90
23143;DHT22;11740;51.168;4.112;2022-07-17T08:50:38;21.40;99.90
23143;DHT22;11740;51.168;4.112;2022-07-17T08:53:07;21.60;99.90
23143;DHT22;11740;51.168;4.112;2022-07-17T08:55:34;21.70;99.90
23143;DHT22;11740;51.168;4.112;2022-07-17T08:58:02;21.80;99.90
23143;DHT22;11740;51.168;4.112;2022-07-17T09:00:31;22.00;99.90
23143;DHT22;11740;51.168;4.112;2022-07-17T09:03:08;22.10;99.90
23143;DHT22;11740;51.168;4.112;2022-07-17T09:05:40;22.10;99.90
23143;DHT22;11740;51.168;4.112;2022-07-17T09:08:16;22.20;99.90
23143;DHT22;11740;51.168;4.112;2022-07-17T09:10:47;22.30;99.90
23143;DHT22;11740;51.168;4.112;2022-07-17T09:13:24;22.50;99.90
23143;DHT22;11740;51.168;4.112;2022-07-17T09:15:58;22.60;99.90
23143;DHT22;11740;51.168;4.112;2022-07-17T09:18:49;22.60;99.90
23143;DHT22;11740;51.168;4.112;2022-07-17T09:21:25;22.70;99.90
23143;DHT22;11740;51.168;4.112;2022-07-17T09:24:06;22.70;99.90
23143;DHT22;11740;51.168;4.112;2022-07-17T09:26:34;22.80;99.90
23143;DHT22;11740;51.168;4.112;2022-07-17T09:29:04;23.10;99.90
23143;DHT22;11740;51.168;4.112;2022-07-17T09:31:32;23.30;99.90
23143;DHT22;11740;51.168;4.112;2022-07-17T09:34:00;23.30;99.90
23143;DHT22;11740;51.168;4.112;2022-07-17T09:36:28;23.30;99.90
23143;DHT22;11740;51.168;4.112;2022-07-17T09:38:57;23.20;99.90
23143;DHT22;11740;51.168;4.112;2022-07-17T09:41:26;23.20;99.90
23143;DHT22;11740;51.168;4.112;2022-07-17T09:44:01;23.30;99.90
23143;DHT22;11740;51.168;4.112;2022-07-17T09:46:34;23.30;99.90
23143;DHT22;11740;51.168;4.112;2022-07-17T09:49:07;23.40;99.90
23143;DHT22;11740;51.168;4.112;2022-07-17T09:51:38;23.50;99.90
23143;DHT22;11740;51.168;4.112;2022-07-17T09:54:10;23.50;99.90
23143;DHT22;11740;51.168;4.112;2022-07-17T09:56:40;23.70;99.90
23143;DHT22;11740;51.168;4.112;2022-07-17T09:59:09;23.80;99.90
23143;DHT22;11740;51.168;4.112;2022-07-17T10:01:41;23.50;99.90
23143;DHT22;11740;51.168;4.112;2022-07-17T10:04:11;23.70;99.90
23143;DHT22;11740;51.168;4.112;2022-07-17T10:06:38;23.80;99.90
23143;DHT22;11740;51.168;4.112;2022-07-17T10:09:06;23.90;99.90
23143;DHT22;11740;51.168;4.112;2022-07-17T10:11:36;23.90;99.90
23143;DHT22;11740;51.168;4.112;2022-07-17T10:14:15;23.90;99.90
23143;DHT22;11740;51.168;4.112;2022-07-17T10:16:43;24.00;99.90
23143;DHT22;11740;51.168;4.112;2022-07-17T10:19:21;24.10;99.90
23143;DHT22;11740;51.168;4.112;2022-07-17T10:21:54;24.20;99.90
23143;DHT22;11740;51.168;4.112;2022-07-17T10:24:24;24.30;99.90
23143;DHT22;11740;51.168;4.112;2022-07-17T10:26:55;24.20;99.90
23143;DHT22;11740;51.168;4.112;2022-07-17T10:32:00;24.30;99.90
23143;DHT22;11740;51.168;4.112;2022-07-17T10:34:38;24.40;99.90
23143;DHT22;11740;51.168;4.112;2022-07-17T10:37:21;24.30;99.90
23143;DHT22;11740;51.168;4.112;2022-07-17T10:40:16;24.50;99.90
23143;DHT22;11740;51.168;4.112;2022-07-17T10:43:06;24.60;99.90
23143;DHT22;11740;51.168;4.112;2022-07-17T10:45:42;24.60;99.90
23143;DHT22;11740;51.168;4.112;2022-07-17T10:48:15;24.80;99.90
23143;DHT22;11740;51.168;4.112;2022-07-17T10:50:48;24.90;99.90
23143;DHT22;11740;51.168;4.112;2022-07-17T10:53:25;24.90;99.90
23143;DHT22;11740;51.168;4.112;2022-07-17T10:56:05;24.90;99.90
23143;DHT22;11740;51.168;4.112;2022-07-17T10:58:41;24.90;99.90
23143;DHT22;11740;51.168;4.112;2022-07-17T11:01:11;24.90;99.90
23143;DHT22;11740;51.168;4.112;2022-07-17T11:06:19;25.20;99.90
23143;DHT22;11740;51.168;4.112;2022-07-17T11:09:09;25.30;99.90
23143;DHT22;11740;51.168;4.112;2022-07-17T11:11:41;25.40;99.90
23143;DHT22;11740;51.168;4.112;2022-07-17T11:14:25;25.40;99.90
23143;DHT22;11740;51.168;4.112;2022-07-17T11:16:59;25.60;99.90
23143;DHT22;11740;51.168;4.112;2022-07-17T11:19:32;25.70;99.90
23143;DHT22;11740;51.168;4.112;2022-07-17T11:22:07;25.70;99.90
23143;DHT22;11740;51.168;4.112;2022-07-17T11:24:37;25.80;99.90
23143;DHT22;11740;51.168;4.112;2022-07-17T11:27:22;25.90;99.90
23143;DHT22;11740;51.168;4.112;2022-07-17T11:29:56;25.90;99.90
23143;DHT22;11740;51.168;4.112;2022-07-17T11:32:31;26.00;99.90
23143;DHT22;11740;51.168;4.112;2022-07-17T11:35:18;26.10;99.90
23143;DHT22;11740;51.168;4.112;2022-07-17T11:38:06;26.10;99.90
23143;DHT22;11740;51.168;4.112;2022-07-17T11:40:33;26.30;99.90
23143;DHT22;11740;51.168;4.112;2022-07-17T11:43:01;26.40;99.90
23143;DHT22;11740;51.168;4.112;2022-07-17T11:45:29;26.60;99.90
23143;DHT22;11740;51.168;4.112;2022-07-17T11:48:06;26.60;99.90
23143;DHT22;11740;51.168;4.112;2022-07-17T11:50:33;26.80;99.90
23143;DHT22;11740;51.168;4.112;2022-07-17T11:53:02;26.90;99.90
23143;DHT22;11740;51.168;4.112;2022-07-17T11:55:40;27.00;99.90
23143;DHT22;11740;51.168;4.112;2022-07-17T11:58:08;27.10;99.90
23143;DHT22;11740;51.168;4.112;2022-07-17T12:00:36;27.10;99.90
23143;DHT22;11740;51.168;4.112;2022-07-17T12:03:05;27.30;99.90
23143;DHT22;11740;51.168;4.112;2022-07-17T12:05:35;27.50;99.90
23143;DHT22;11740;51.168;4.112;2022-07-17T12:08:05;27.50;99.90
23143;DHT22;11740;51.168;4.112;2022-07-17T12:10:34;27.60;99.90
23143;DHT22;11740;51.168;4.112;2022-07-17T12:13:04;27.70;99.90
23143;DHT22;11740;51.168;4.112;2022-07-17T12:15:40;27.80;99.90
23143;DHT22;11740;51.168;4.112;2022-07-17T12:18:23;28.00;99.90
23143;DHT22;11740;51.168;4.112;2022-07-17T12:21:02;28.10;99.90
23143;DHT22;11740;51.168;4.112;2022-07-17T12:23:37;28.10;99.90
23143;DHT22;11740;51.168;4.112;2022-07-17T12:26:10;28.20;99.90
23143;DHT22;11740;51.168;4.112;2022-07-17T12:28:46;28.30;99.90
23143;DHT22;11740;51.168;4.112;2022-07-17T12:31:14;28.50;99.90
23143;DHT22;11740;51.168;4.112;2022-07-17T12:33:42;28.40;99.90
23143;DHT22;11740;51.168;4.112;2022-07-17T12:36:11;28.40;99.90
23143;DHT22;11740;51.168;4.112;2022-07-17T12:38:38;28.60;99.90
23143;DHT22;11740;51.168;4.112;2022-07-17T12:41:05;28.80;99.90
23143;DHT22;11740;51.168;4.112;2022-07-17T12:43:33;28.80;99.90
23143;DHT22;11740;51.168;4.112;2022-07-17T12:46:00;28.90;99.90
23143;DHT22;11740;51.168;4.112;2022-07-17T12:48:38;29.00;99.90
23143;DHT22;11740;51.168;4.112;2022-07-17T12:51:07;29.10;99.90
23143;DHT22;11740;51.168;4.112;2022-07-17T12:53:35;29.20;99.90
23143;DHT22;11740;51.168;4.112;2022-07-17T12:56:03;29.30;99.90
23143;DHT22;11740;51.168;4.112;2022-07-17T12:58:31;29.50;99.90
23143;DHT22;11740;51.168;4.112;2022-07-17T13:00:58;29.50;99.90
23143;DHT22;11740;51.168;4.112;2022-07-17T13:03:25;29.60;99.90
23143;DHT22;11740;51.168;4.112;2022-07-17T13:05:53;29.80;99.90
23143;DHT22;11740;51.168;4.112;2022-07-17T13:08:20;29.90;99.90
23143;DHT22;11740;51.168;4.112;2022-07-17T13:10:48;29.90;99.90
23143;DHT22;11740;51.168;4.112;2022-07-17T13:13:15;30.20;99.90
23143;DHT22;11740;51.168;4.112;2022-07-17T13:15:42;30.40;99.90
23143;DHT22;11740;51.168;4.112;2022-07-17T13:18:09;30.40;99.90
23143;DHT22;11740;51.168;4.112;2022-07-17T13:20:42;30.50;99.90
23143;DHT22;11740;51.168;4.112;2022-07-17T13:23:13;30.70;99.90
23143;DHT22;11740;51.168;4.112;2022-07-17T13:25:40;30.80;99.90
23143;DHT22;11740;51.168;4.112;2022-07-17T13:28:08;30.90;99.90
23143;DHT22;11740;51.168;4.112;2022-07-17T13:30:37;30.90;99.90
23143;DHT22;11740;51.168;4.112;2022-07-17T13:33:04;31.00;99.90
23143;DHT22;11740;51.168;4.112;2022-07-17T13:35:32;31.00;99.90
23143;DHT22;11740;51.168;4.112;2022-07-17T13:37:59;31.30;99.90
23143;DHT22;11740;51.168;4.112;2022-07-17T13:40:30;31.40;99.90
23143;DHT22;11740;51.168;4.112;2022-07-17T13:42:59;31.50;91.80
23143;DHT22;11740;51.168;4.112;2022-07-17T13:45:30;31.60;97.40
23143;DHT22;11740;51.168;4.112;2022-07-17T13:47:58;31.70;99.90
23143;DHT22;11740;51.168;4.112;2022-07-17T13:50:26;31.80;99.90
23143;DHT22;11740;51.168;4.112;2022-07-17T13:52:54;32.00;99.90
23143;DHT22;11740;51.168;4.112;2022-07-17T13:55:22;32.20;98.10
23143;DHT22;11740;51.168;4.112;2022-07-17T13:58:06;32.20;99.90
23143;DHT22;11740;51.168;4.112;2022-07-17T14:00:34;32.40;99.90
23143;DHT22;11740;51.168;4.112;2022-07-17T14:03:01;32.40;99.90
23143;DHT22;11740;51.168;4.112;2022-07-17T14:05:28;32.50;99.50
23143;DHT22;11740;51.168;4.112;2022-07-17T14:07:55;32.50;99.90
23143;DHT22;11740;51.168;4.112;2022-07-17T14:10:22;32.60;99.90
23143;DHT22;11740;51.168;4.112;2022-07-17T14:12:49;32.80;99.90
23143;DHT22;11740;51.168;4.112;2022-07-17T14:15:16;32.80;93.70
23143;DHT22;11740;51.168;4.112;2022-07-17T14:17:43;33.00;99.90
23143;DHT22;11740;51.168;4.112;2022-07-17T14:20:11;33.00;99.90
23143;DHT22;11740;51.168;4.112;2022-07-17T14:22:38;33.20;84.50
23143;DHT22;11740;51.168;4.112;2022-07-17T14:25:06;33.20;92.70
23143;DHT22;11740;51.168;4.112;2022-07-17T14:27:34;33.30;87.60
23143;DHT22;11740;51.168;4.112;2022-07-17T14:30:01;33.40;99.60
23143;DHT22;11740;51.168;4.112;2022-07-17T14:32:28;33.50;99.90
23143;DHT22;11740;51.168;4.112;2022-07-17T14:34:56;33.70;94.20
23143;DHT22;11740;51.168;4.112;2022-07-17T14:37:23;33.80;98.20
23143;DHT22;11740;51.168;4.112;2022-07-17T14:39:50;33.80;87.00
23143;DHT22;11740;51.168;4.112;2022-07-17T14:42:17;33.90;86.90
23143;DHT22;11740;51.168;4.112;2022-07-17T14:44:44;33.90;88.40
23143;DHT22;11740;51.168;4.112;2022-07-17T14:47:11;34.00;73.00
23143;DHT22;11740;51.168;4.112;2022-07-17T14:49:38;34.20;90.30
23143;DHT22;11740;51.168;4.112;2022-07-17T14:52:05;34.40;92.60
23143;DHT22;11740;51.168;4.112;2022-07-17T14:54:32;34.40;86.80
23143;DHT22;11740;51.168;4.112;2022-07-17T14:56:59;34.60;90.70
23143;DHT22;11740;51.168;4.112;2022-07-17T14:59:27;34.70;99.90
23143;DHT22;11740;51.168;4.112;2022-07-17T15:01:54;34.90;94.30
23143;DHT22;11740;51.168;4.112;2022-07-17T15:04:21;34.90;96.70
23143;DHT22;11740;51.168;4.112;2022-07-17T15:06:50;35.00;87.80
23143;DHT22;11740;51.168;4.112;2022-07-17T15:09:17;35.00;93.50
23143;DHT22;11740;51.168;4.112;2022-07-17T15:11:45;35.20;83.70
23143;DHT22;11740;51.168;4.112;2022-07-17T15:14:12;35.10;57.50
23143;DHT22;11740;51.168;4.112;2022-07-17T15:16:39;35.10;62.10
23143;DHT22;11740;51.168;4.112;2022-07-17T15:19:06;35.30;61.60
23143;DHT22;11740;51.168;4.112;2022-07-17T15:21:33;35.20;57.10
23143;DHT22;11740;51.168;4.112;2022-07-17T15:24:18;35.40;53.30
23143;DHT22;11740;51.168;4.112;2022-07-17T15:26:45;35.60;86.70
23143;DHT22;11740;51.168;4.112;2022-07-17T15:29:15;35.70;50.50
23143;DHT22;11740;51.168;4.112;2022-07-17T15:31:43;35.80;48.90
23143;DHT22;11740;51.168;4.112;2022-07-17T15:34:11;35.80;47.20
23143;DHT22;11740;51.168;4.112;2022-07-17T15:36:38;35.80;39.70
23143;DHT22;11740;51.168;4.112;2022-07-17T15:39:06;36.10;40.80
23143;DHT22;11740;51.168;4.112;2022-07-17T15:41:34;36.30;47.60
23143;DHT22;11740;51.168;4.112;2022-07-17T15:44:02;36.30;50.90
23143;DHT22;11740;51.168;4.112;2022-07-17T15:46:30;36.30;39.00
23143;DHT22;11740;51.168;4.112;2022-07-17T15:48:59;36.20;59.00
23143;DHT22;11740;51.168;4.112;2022-07-17T15:51:26;36.20;46.70
23143;DHT22;11740;51.168;4.112;2022-07-17T15:53:54;36.30;33.30